sensor_id;sensor_type;location;lat;lon;timestamp;temperature;humidity
18388;DHT22;9320;50.256;19.026;2023-02-02T00:02:00;2.70;99.90
18388;DHT22;9320;50.256;19.026;2023-02-02T00:04:33;2.80;99.90
18388;DHT22;9320;50.256;19.026;2023-02-02T00:07:02;2.70;99.90
18388;DHT22;9320;50.256;19.026;2023-02-02T00:09:31;2.70;99.90
18388;DHT22;9320;50.256;19.026;2023-02-02T00:12:00;2.80;99.90
18388;DHT22;9320;50.256;19.026;2023-02-02T00:14:28;2.70;99.90
18388;DHT22;9320;50.256;19.026;2023-02-02T00:16:57;2.70;99.90
18388;DHT22;9320;50.256;19.026;2023-02-02T00:19:26;2.70;99.90
18388;DHT22;9320;50.256;19.026;2023-02-02T00:21:57;2.70;99.90
18388;DHT22;9320;50.256;19.026;2023-02-02T00:24:25;2.70;99.90
18388;DHT22;9320;50.256;19.026;2023-02-02T00:26:55;2.70;99.90
18388;DHT22;9320;50.256;19.026;2023-02-02T00:29:25;2.70;99.90
18388;DHT22;9320;50.256;19.026;2023-02-02T00:31:53;2.70;99.90
18388;DHT22;9320;50.256;19.026;2023-02-02T00:34:22;2.70;99.90
18388;DHT22;9320;50.256;19.026;2023-02-02T00:36:51;2.70;99.90
18388;DHT22;9320;50.256;19.026;2023-02-02T00:39:21;2.60;99.90
18388;DHT22;9320;50.256;19.026;2023-02-02T00:41:51;2.60;99.90
18388;DHT22;9320;50.256;19.026;2023-02-02T00:44:19;2.60;99.90
18388;DHT22;9320;50.256;19.026;2023-02-02T00:47:01;2.70;99.90
18388;DHT22;9320;50.256;19.026;2023-02-02T00:49:30;2.70;99.90
18388;DHT22;9320;50.256;19.026;2023-02-02T00:51:58;2.70;99.90
18388;DHT22;9320;50.256;19.026;2023-02-02T00:54:28;2.80;99.90
18388;DHT22;9320;50.256;19.026;2023-02-02T00:56:56;2.90;99.90
18388;DHT22;9320;50.256;19.026;2023-02-02T00:59:24;2.80;99.90
18388;DHT22;9320;50.256;19.026;2023-02-02T01:01:51;2.80;99.90
18388;DHT22;9320;50.256;19.026;2023-02-02T01:04:20;2.80;99.90
18388;DHT22;9320;50.256;19.026;2023-02-02T01:06:48;2.80;99.90
18388;DHT22;9320;50.256;19.026;2023-02-02T01:09:15;2.90;99.90
18388;DHT22;9320;50.256;19.026;2023-02-02T01:11:45;2.80;99.90
18388;DHT22;9320;50.256;19.026;2023-02-02T01:14:13;2.90;99.90
18388;DHT22;9320;50.256;19.026;2023-02-02T01:16:41;3.00;99.90
18388;DHT22;9320;50.256;19.026;2023-02-02T01:19:11;2.90;99.90
18388;DHT22;9320;50.256;19.026;2023-02-02T01:21:39;2.90;99.90
18388;DHT22;9320;50.256;19.026;2023-02-02T01:24:07;2.80;99.90
18388;DHT22;9320;50.256;19.026;2023-02-02T01:26:35;2.90;99.90
18388;DHT22;9320;50.256;19.026;2023-02-02T01:29:05;3.00;99.90
18388;DHT22;9320;50.256;19.026;2023-02-02T01:31:33;2.90;99.90
18388;DHT22;9320;50.256;19.026;2023-02-02T01:34:01;2.90;99.90
18388;DHT22;9320;50.256;19.026;2023-02-02T01:36:29;2.90;99.90
18388;DHT22;9320;50.256;19.026;2023-02-02T01:39:09;2.90;99.90
18388;DHT22;9320;50.256;19.026;2023-02-02T01:41:39;3.00;99.90
18388;DHT22;9320;50.256;19.026;2023-02-02T01:47:10;3.00;99.90
18388;DHT22;9320;50.256;19.026;2023-02-02T01:49:39;3.00;99.90
18388;DHT22;9320;50.256;19.026;2023-02-02T01:52:08;3.10;99.90
18388;DHT22;9320;50.256;19.026;2023-02-02T01:54:39;3.10;99.90
18388;DHT22;9320;50.256;19.026;2023-02-02T01:57:12;3.00;99.90
18388;DHT22;9320;50.256;19.026;2023-02-02T01:59:42;3.00;99.90
18388;DHT22;9320;50.256;19.026;2023-02-02T02:02:13;3.10;99.90
18388;DHT22;9320;50.256;19.026;2023-02-02T02:04:41;3.10;99.90
18388;DHT22;9320;50.256;19.026;2023-02-02T02:07:10;3.10;99.90
18388;DHT22;9320;50.256;19.026;2023-02-02T02:09:38;3.10;99.90
18388;DHT22;9320;50.256;19.026;2023-02-02T02:12:10;3.10;99.90
18388;DHT22;9320;50.256;19.026;2023-02-02T02:14:40;3.10;99.90
18388;DHT22;9320;50.256;19.026;2023-02-02T02:17:40;3.30;99.90
18388;DHT22;9320;50.256;19.026;2023-02-02T02:20:40;3.20;99.90
18388;DHT22;9320;50.256;19.026;2023-02-02T02:27:27;3.20;99.90
18388;DHT22;9320;50.256;19.026;2023-02-02T02:30:22;3.30;99.90
18388;DHT22;9320;50.256;19.026;2023-02-02T02:33:02;3.30;99.90
18388;DHT22;9320;50.256;19.026;2023-02-02T02:35:34;3.40;99.90
18388;DHT22;9320;50.256;19.026;2023-02-02T02:38:08;3.30;99.90
18388;DHT22;9320;50.256;19.026;2023-02-02T02:40:41;3.30;99.90
18388;DHT22;9320;50.256;19.026;2023-02-02T02:43:15;3.40;99.90
18388;DHT22;9320;50.256;19.026;2023-02-02T02:45:45;3.40;99.90
18388;DHT22;9320;50.256;19.026;2023-02-02T02:48:15;3.40;99.90
18388;DHT22;9320;50.256;19.026;2023-02-02T02:50:43;3.50;99.90
18388;DHT22;9320;50.256;19.026;2023-02-02T02:53:15;3.40;99.90
18388;DHT22;9320;50.256;19.026;2023-02-02T02:55:48;3.50;99.90
18388;DHT22;9320;50.256;19.026;2023-02-02T02:58:19;3.50;99.90
18388;DHT22;9320;50.256;19.026;2023-02-02T03:00:58;3.50;99.90
18388;DHT22;9320;50.256;19.026;2023-02-02T03:06:28;3.50;99.90
18388;DHT22;9320;50.256;19.026;2023-02-02T03:09:00;3.50;99.90
18388;DHT22;9320;50.256;19.026;2023-02-02T03:11:30;3.50;99.90
18388;DHT22;9320;50.256;19.026;2023-02-02T03:13:58;3.60;99.90
18388;DHT22;9320;50.256;19.026;2023-02-02T03:16:28;3.60;99.90
18388;DHT22;9320;50.256;19.026;2023-02-02T03:18:57;3.60;99.90
18388;DHT22;9320;50.256;19.026;2023-02-02T03:21:25;3.60;99.90
18388;DHT22;9320;50.256;19.026;2023-02-02T03:23:53;3.60;99.90
18388;DHT22;9320;50.256;19.026;2023-02-02T03:26:21;3.60;99.90
18388;DHT22;9320;50.256;19.026;2023-02-02T03:28:50;3.70;99.90
18388;DHT22;9320;50.256;19.026;2023-02-02T03:31:18;3.80;99.90
18388;DHT22;9320;50.256;19.026;2023-02-02T03:33:46;3.80;99.90
18388;DHT22;9320;50.256;19.026;2023-02-02T03:36:16;3.80;99.90
18388;DHT22;9320;50.256;19.026;2023-02-02T03:38:44;3.80;99.90
18388;DHT22;9320;50.256;19.026;2023-02-02T03:41:12;3.80;99.90
18388;DHT22;9320;50.256;19.026;2023-02-02T03:43:39;3.80;99.90
18388;DHT22;9320;50.256;19.026;2023-02-02T03:46:07;3.80;99.90
18388;DHT22;9320;50.256;19.026;2023-02-02T03:48:37;3.80;99.90
18388;DHT22;9320;50.256;19.026;2023-02-02T03:51:06;3.80;99.90
18388;DHT22;9320;50.256;19.026;2023-02-02T03:53:36;3.80;99.90
18388;DHT22;9320;50.256;19.026;2023-02-02T03:56:05;3.80;99.90
18388;DHT22;9320;50.256;19.026;2023-02-02T03:58:33;3.80;99.90
18388;DHT22;9320;50.256;19.026;2023-02-02T04:01:02;3.80;99.90
18388;DHT22;9320;50.256;19.026;2023-02-02T04:03:31;3.80;99.90
18388;DHT22;9320;50.256;19.026;2023-02-02T04:05:59;3.90;99.90
18388;DHT22;9320;50.256;19.026;2023-02-02T04:08:27;3.70;99.90
18388;DHT22;9320;50.256;19.026;2023-02-02T04:10:57;3.70;99.90
18388;DHT22;9320;50.256;19.026;2023-02-02T04:13:25;3.80;99.90
18388;DHT22;9320;50.256;19.026;2023-02-02T04:15:57;3.80;99.90
18388;DHT22;9320;50.256;19.026;2023-02-02T04:18:25;3.80;99.90
18388;DHT22;9320;50.256;19.026;2023-02-02T04:20:57;3.90;99.90
18388;DHT22;9320;50.256;19.026;2023-02-02T04:23:25;3.90;99.90
18388;DHT22;9320;50.256;19.026;2023-02-02T04:25:53;3.90;99.90
18388;DHT22;9320;50.256;19.026;2023-02-02T04:28:23;3.90;99.90
18388;DHT22;9320;50.256;19.026;2023-02-02T04:30:53;3.90;99.90
18388;DHT22;9320;50.256;19.026;2023-02-02T04:33:23;3.90;99.90
18388;DHT22;9320;50.256;19.026;2023-02-02T04:35:51;3.90;99.90
18388;DHT22;9320;50.256;19.026;2023-02-02T04:38:19;3.90;99.90
18388;DHT22;9320;50.256;19.026;2023-02-02T04:40:47;4.00;99.90
18388;DHT22;9320;50.256;19.026;2023-02-02T04:43:15;4.00;99.90
18388;DHT22;9320;50.256;19.026;2023-02-02T04:45:45;4.00;99.90
18388;DHT22;9320;50.256;19.026;2023-02-02T04:48:13;4.00;99.90
18388;DHT22;9320;50.256;19.026;2023-02-02T04:50:40;4.00;99.90
18388;DHT22;9320;50.256;19.026;2023-02-02T04:53:08;4.00;99.90
18388;DHT22;9320;50.256;19.026;2023-02-02T04:55:37;3.90;99.90
18388;DHT22;9320;50.256;19.026;2023-02-02T04:58:05;4.00;99.90
18388;DHT22;9320;50.256;19.026;2023-02-02T05:00:33;4.10;99.90
18388;DHT22;9320;50.256;19.026;2023-02-02T05:03:02;4.10;99.90
18388;DHT22;9320;50.256;19.026;2023-02-02T05:05:30;4.10;99.90
18388;DHT22;9320;50.256;19.026;2023-02-02T05:07:58;4.10;99.90
18388;DHT22;9320;50.256;19.026;2023-02-02T05:10:26;4.10;99.90
18388;DHT22;9320;50.256;19.026;2023-02-02T05:12:55;4.10;99.90
18388;DHT22;9320;50.256;19.026;2023-02-02T05:15:23;4.10;99.90
18388;DHT22;9320;50.256;19.026;2023-02-02T05:17:51;4.00;99.90
18388;DHT22;9320;50.256;19.026;2023-02-02T05:20:20;3.90;99.90
18388;DHT22;9320;50.256;19.026;2023-02-02T05:22:48;4.10;99.90
18388;DHT22;9320;50.256;19.026;2023-02-02T05:25:17;4.00;99.90
18388;DHT22;9320;50.256;19.026;2023-02-02T05:27:45;4.10;99.90
18388;DHT22;9320;50.256;19.026;2023-02-02T05:30:13;4.10;99.90
18388;DHT22;9320;50.256;19.026;2023-02-02T05:32:42;4.20;99.90
18388;DHT22;9320;50.256;19.026;2023-02-02T05:35:10;4.20;99.90
18388;DHT22;9320;50.256;19.026;2023-02-02T05:37:41;4.20;99.90
18388;DHT22;9320;50.256;19.026;2023-02-02T05:40:10;4.30;99.90
18388;DHT22;9320;50.256;19.026;2023-02-02T05:42:38;4.30;99.90
18388;DHT22;9320;50.256;19.026;2023-02-02T05:45:07;4.40;99.90
18388;DHT22;9320;50.256;19.026;2023-02-02T05:47:35;4.40;99.90
18388;DHT22;9320;50.256;19.026;2023-02-02T05:50:03;4.40;99.90
18388;DHT22;9320;50.256;19.026;2023-02-02T05:52:32;4.30;99.90
18388;DHT22;9320;50.256;19.026;2023-02-02T05:55:03;4.30;99.90
18388;DHT22;9320;50.256;19.026;2023-02-02T05:57:31;4.30;99.90
18388;DHT22;9320;50.256;19.026;2023-02-02T05:59:59;4.30;99.90
18388;DHT22;9320;50.256;19.026;2023-02-02T06:02:27;4.30;99.90
18388;DHT22;9320;50.256;19.026;2023-02-02T06:04:55;4.30;99.90
18388;DHT22;9320;50.256;19.026;2023-02-02T06:07:23;4.30;99.90
18388;DHT22;9320;50.256;19.026;2023-02-02T06:09:51;4.40;99.90
18388;DHT22;9320;50.256;19.026;2023-02-02T06:12:20;4.40;99.90
18388;DHT22;9320;50.256;19.026;2023-02-02T06:14:48;4.40;99.90
18388;DHT22;9320;50.256;19.026;2023-02-02T06:17:16;4.40;99.90
18388;DHT22;9320;50.256;19.026;2023-02-02T06:19:44;4.50;99.90
18388;DHT22;9320;50.256;19.026;2023-02-02T06:22:12;4.50;99.90
18388;DHT22;9320;50.256;19.026;2023-02-02T06:24:40;4.50;99.90
18388;DHT22;9320;50.256;19.026;2023-02-02T06:27:08;4.50;99.90
18388;DHT22;9320;50.256;19.026;2023-02-02T06:29:38;4.40;99.90
18388;DHT22;9320;50.256;19.026;2023-02-02T06:32:06;4.30;99.90
18388;DHT22;9320;50.256;19.026;2023-02-02T06:34:34;4.20;99.90
18388;DHT22;9320;50.256;19.026;2023-02-02T06:37:02;4.20;99.90
18388;DHT22;9320;50.256;19.026;2023-02-02T06:39:30;4.20;99.90
18388;DHT22;9320;50.256;19.026;2023-02-02T06:41:58;4.20;99.90
18388;DHT22;9320;50.256;19.026;2023-02-02T06:44:42;4.70;99.90
18388;DHT22;9320;50.256;19.026;2023-02-02T06:47:10;4.30;99.90
18388;DHT22;9320;50.256;19.026;2023-02-02T06:49:38;4.20;99.90
18388;DHT22;9320;50.256;19.026;2023-02-02T06:52:07;4.10;99.90
18388;DHT22;9320;50.256;19.026;2023-02-02T06:54:35;4.00;99.90
18388;DHT22;9320;50.256;19.026;2023-02-02T06:57:03;4.00;99.90
18388;DHT22;9320;50.256;19.026;2023-02-02T06:59:31;4.00;99.90
18388;DHT22;9320;50.256;19.026;2023-02-02T07:02:01;3.90;99.90
18388;DHT22;9320;50.256;19.026;2023-02-02T07:04:29;3.90;99.90
18388;DHT22;9320;50.256;19.026;2023-02-02T07:06:57;3.90;99.90
18388;DHT22;9320;50.256;19.026;2023-02-02T07:09:25;4.00;99.90
18388;DHT22;9320;50.256;19.026;2023-02-02T07:11:53;3.90;99.90
18388;DHT22;9320;50.256;19.026;2023-02-02T07:14:23;3.90;99.90
18388;DHT22;9320;50.256;19.026;2023-02-02T07:16:51;3.80;99.90
18388;DHT22;9320;50.256;19.026;2023-02-02T07:19:21;3.90;99.90
18388;DHT22;9320;50.256;19.026;2023-02-02T07:21:49;3.80;99.90
18388;DHT22;9320;50.256;19.026;2023-02-02T07:24:18;3.80;99.90
18388;DHT22;9320;50.256;19.026;2023-02-02T07:26:46;3.70;99.90
18388;DHT22;9320;50.256;19.026;2023-02-02T07:29:14;3.80;99.90
18388;DHT22;9320;50.256;19.026;2023-02-02T07:31:42;3.70;99.90
18388;DHT22;9320;50.256;19.026;2023-02-02T07:34:10;3.80;99.90
18388;DHT22;9320;50.256;19.026;2023-02-02T07:36:40;3.80;99.90
18388;DHT22;9320;50.256;19.026;2023-02-02T07:39:08;3.80;99.90
18388;DHT22;9320;50.256;19.026;2023-02-02T07:41:38;3.80;99.90
18388;DHT22;9320;50.256;19.026;2023-02-02T07:44:06;3.90;99.90
18388;DHT22;9320;50.256;19.026;2023-02-02T07:46:34;3.90;99.90
18388;DHT22;9320;50.256;19.026;2023-02-02T07:49:04;3.90;99.90
18388;DHT22;9320;50.256;19.026;2023-02-02T07:51:32;3.90;99.90
18388;DHT22;9320;50.256;19.026;2023-02-02T07:54:04;3.90;99.90
18388;DHT22;9320;50.256;19.026;2023-02-02T07:56:33;3.80;99.90
18388;DHT22;9320;50.256;19.026;2023-02-02T07:59:01;3.80;99.90
18388;DHT22;9320;50.256;19.026;2023-02-02T08:01:32;3.80;99.90
18388;DHT22;9320;50.256;19.026;2023-02-02T08:04:03;3.70;99.90
18388;DHT22;9320;50.256;19.026;2023-02-02T08:06:33;3.70;99.90
18388;DHT22;9320;50.256;19.026;2023-02-02T08:09:05;3.80;99.90
18388;DHT22;9320;50.256;19.026;2023-02-02T08:11:34;3.80;99.90
18388;DHT22;9320;50.256;19.026;2023-02-02T08:14:03;3.90;99.90
18388;DHT22;9320;50.256;19.026;2023-02-02T08:16:32;3.80;99.90
18388;DHT22;9320;50.256;19.026;2023-02-02T08:19:00;4.00;99.90
18388;DHT22;9320;50.256;19.026;2023-02-02T08:21:31;4.00;99.90
18388;DHT22;9320;50.256;19.026;2023-02-02T08:24:00;4.00;99.90
18388;DHT22;9320;50.256;19.026;2023-02-02T08:26:30;4.00;99.90
18388;DHT22;9320;50.256;19.026;2023-02-02T08:29:00;4.00;99.90
18388;DHT22;9320;50.256;19.026;2023-02-02T08:31:31;4.10;99.90
18388;DHT22;9320;50.256;19.026;2023-02-02T08:34:02;4.00;99.90
18388;DHT22;9320;50.256;19.026;2023-02-02T08:36:30;4.00;99.90
18388;DHT22;9320;50.256;19.026;2023-02-02T08:39:02;4.00;99.90
18388;DHT22;9320;50.256;19.026;2023-02-02T08:41:40;4.10;99.90
18388;DHT22;9320;50.256;19.026;2023-02-02T08:44:16;4.20;99.90
18388;DHT22;9320;50.256;19.026;2023-02-02T08:46:45;4.20;99.90
18388;DHT22;9320;50.256;19.026;2023-02-02T08:49:13;4.20;99.90
18388;DHT22;9320;50.256;19.026;2023-02-02T08:51:42;4.10;99.90
18388;DHT22;9320;50.256;19.026;2023-02-02T08:54:16;4.20;99.90
18388;DHT22;9320;50.256;19.026;2023-02-02T08:56:46;4.20;99.90
18388;DHT22;9320;50.256;19.026;2023-02-02T08:59:14;4.20;99.90
18388;DHT22;9320;50.256;19.026;2023-02-02T09:01:42;4.20;99.90
18388;DHT22;9320;50.256;19.026;2023-02-02T09:04:13;4.20;99.90
18388;DHT22;9320;50.256;19.026;2023-02-02T09:06:43;4.10;99.90
18388;DHT22;9320;50.256;19.026;2023-02-02T09:09:13;4.10;99.90
18388;DHT22;9320;50.256;19.026;2023-02-02T09:11:42;4.20;99.90
18388;DHT22;9320;50.256;19.026;2023-02-02T09:14:13;4.20;99.90
18388;DHT22;9320;50.256;19.026;2023-02-02T09:16:41;4.20;99.90
18388;DHT22;9320;50.256;19.026;2023-02-02T09:19:10;4.20;99.90
18388;DHT22;9320;50.256;19.026;2023-02-02T09:21:38;4.10;99.90
18388;DHT22;9320;50.256;19.026;2023-02-02T09:24:08;4.20;99.90
18388;DHT22;9320;50.256;19.026;2023-02-02T09:26:36;4.10;99.90
18388;DHT22;9320;50.256;19.026;2023-02-02T09:29:09;4.00;99.90
18388;DHT22;9320;50.256;19.026;2023-02-02T09:31:39;3.90;99.90
18388;DHT22;9320;50.256;19.026;2023-02-02T09:34:09;3.80;99.90
18388;DHT22;9320;50.256;19.026;2023-02-02T09:36:38;3.80;99.90
18388;DHT22;9320;50.256;19.026;2023-02-02T09:39:09;3.80;99.90
18388;DHT22;9320;50.256;19.026;2023-02-02T09:42:10;3.70;99.90
18388;DHT22;9320;50.256;19.026;2023-02-02T09:44:55;3.80;99.90
18388;DHT22;9320;50.256;19.026;2023-02-02T09:50:27;3.90;99.90
18388;DHT22;9320;50.256;19.026;2023-02-02T09:53:03;3.90;99.90
18388;DHT22;9320;50.256;19.026;2023-02-02T09:55:39;3.80;99.90
18388;DHT22;9320;50.256;19.026;2023-02-02T09:58:13;3.90;99.90
18388;DHT22;9320;50.256;19.026;2023-02-02T10:00:47;3.90;99.90
18388;DHT22;9320;50.256;19.026;2023-02-02T10:03:28;3.90;99.90
18388;DHT22;9320;50.256;19.026;2023-02-02T10:06:02;4.30;99.90
18388;DHT22;9320;50.256;19.026;2023-02-02T10:08:35;3.90;99.90
18388;DHT22;9320;50.256;19.026;2023-02-02T10:11:26;3.90;99.90
18388;DHT22;9320;50.256;19.026;2023-02-02T10:14:01;3.90;99.90
18388;DHT22;9320;50.256;19.026;2023-02-02T10:16:32;3.90;99.90
18388;DHT22;9320;50.256;19.026;2023-02-02T10:19:04;4.10;99.90
18388;DHT22;9320;50.256;19.026;2023-02-02T10:21:38;4.20;99.90
18388;DHT22;9320;50.256;19.026;2023-02-02T10:24:14;4.40;99.90
18388;DHT22;9320;50.256;19.026;2023-02-02T10:26:46;4.50;99.90
18388;DHT22;9320;50.256;19.026;2023-02-02T10:29:27;4.60;99.90
18388;DHT22;9320;50.256;19.026;2023-02-02T10:32:19;4.70;99.90
18388;DHT22;9320;50.256;19.026;2023-02-02T10:35:02;4.70;99.90
18388;DHT22;9320;50.256;19.026;2023-02-02T10:37:46;4.70;99.90
18388;DHT22;9320;50.256;19.026;2023-02-02T10:40:26;5.00;99.90
18388;DHT22;9320;50.256;19.026;2023-02-02T10:43:12;5.10;99.90
18388;DHT22;9320;50.256;19.026;2023-02-02T10:46:03;5.20;99.90
18388;DHT22;9320;50.256;19.026;2023-02-02T10:48:33;5.30;99.90
18388;DHT22;9320;50.256;19.026;2023-02-02T10:51:09;5.20;99.90
18388;DHT22;9320;50.256;19.026;2023-02-02T10:53:39;5.10;99.90
18388;DHT22;9320;50.256;19.026;2023-02-02T10:56:11;5.20;99.90
18388;DHT22;9320;50.256;19.026;2023-02-02T10:58:45;5.20;99.90
18388;DHT22;9320;50.256;19.026;2023-02-02T11:01:15;5.40;99.90
18388;DHT22;9320;50.256;19.026;2023-02-02T11:03:44;5.30;99.90
18388;DHT22;9320;50.256;19.026;2023-02-02T11:06:14;5.30;99.90
18388;DHT22;9320;50.256;19.026;2023-02-02T11:09:00;5.30;99.90
18388;DHT22;9320;50.256;19.026;2023-02-02T11:11:33;5.30;99.90
18388;DHT22;9320;50.256;19.026;2023-02-02T11:14:10;5.40;99.90
18388;DHT22;9320;50.256;19.026;2023-02-02T11:16:41;5.40;99.90
18388;DHT22;9320;50.256;19.026;2023-02-02T11:19:22;5.40;99.90
18388;DHT22;9320;50.256;19.026;2023-02-02T11:21:53;5.40;99.90
18388;DHT22;9320;50.256;19.026;2023-02-02T11:24:25;5.40;99.90
18388;DHT22;9320;50.256;19.026;2023-02-02T11:26:56;5.50;99.90
18388;DHT22;9320;50.256;19.026;2023-02-02T11:29:29;5.70;99.90
18388;DHT22;9320;50.256;19.026;2023-02-02T11:32:17;5.80;99.90
18388;DHT22;9320;50.256;19.026;2023-02-02T11:34:45;5.80;99.90
18388;DHT22;9320;50.256;19.026;2023-02-02T11:37:20;5.80;99.90
18388;DHT22;9320;50.256;19.026;2023-02-02T11:39:49;5.70;99.90
18388;DHT22;9320;50.256;19.026;2023-02-02T11:42:21;5.60;99.90
18388;DHT22;9320;50.256;19.026;2023-02-02T11:44:51;5.10;99.90
18388;DHT22;9320;50.256;19.026;2023-02-02T11:47:25;5.60;99.90
18388;DHT22;9320;50.256;19.026;2023-02-02T11:49:54;5.60;99.90
18388;DHT22;9320;50.256;19.026;2023-02-02T11:52:28;5.60;99.90
18388;DHT22;9320;50.256;19.026;2023-02-02T11:55:00;5.60;99.90
18388;DHT22;9320;50.256;19.026;2023-02-02T11:57:29;5.60;99.90
18388;DHT22;9320;50.256;19.026;2023-02-02T12:00:16;5.50;99.90
18388;DHT22;9320;50.256;19.026;2023-02-02T12:02:45;5.50;99.90
18388;DHT22;9320;50.256;19.026;2023-02-02T12:05:32;5.60;99.90
18388;DHT22;9320;50.256;19.026;2023-02-02T12:08:02;5.40;99.90
18388;DHT22;9320;50.256;19.026;2023-02-02T12:10:37;5.40;99.90
18388;DHT22;9320;50.256;19.026;2023-02-02T12:13:09;5.40;99.90
18388;DHT22;9320;50.256;19.026;2023-02-02T12:15:46;5.40;99.90
18388;DHT22;9320;50.256;19.026;2023-02-02T12:18:32;5.30;99.90
18388;DHT22;9320;50.256;19.026;2023-02-02T12:21:05;5.20;99.90
18388;DHT22;9320;50.256;19.026;2023-02-02T12:23:48;5.20;99.90
18388;DHT22;9320;50.256;19.026;2023-02-02T12:26:21;5.20;99.90
18388;DHT22;9320;50.256;19.026;2023-02-02T12:31:57;5.20;99.90
18388;DHT22;9320;50.256;19.026;2023-02-02T12:34:32;5.30;99.90
18388;DHT22;9320;50.256;19.026;2023-02-02T12:37:10;5.40;99.90
18388;DHT22;9320;50.256;19.026;2023-02-02T12:39:53;5.50;99.90
18388;DHT22;9320;50.256;19.026;2023-02-02T12:42:45;5.50;99.90
18388;DHT22;9320;50.256;19.026;2023-02-02T12:45:38;5.50;99.90
18388;DHT22;9320;50.256;19.026;2023-02-02T12:48:21;5.60;99.90
18388;DHT22;9320;50.256;19.026;2023-02-02T12:51:00;5.50;99.90
18388;DHT22;9320;50.256;19.026;2023-02-02T12:53:40;5.50;99.90
18388;DHT22;9320;50.256;19.026;2023-02-02T12:56:20;5.50;99.90
18388;DHT22;9320;50.256;19.026;2023-02-02T12:58:57;5.50;99.90
18388;DHT22;9320;50.256;19.026;2023-02-02T13:01:42;5.60;99.90
18388;DHT22;9320;50.256;19.026;2023-02-02T13:04:27;6.20;99.90
18388;DHT22;9320;50.256;19.026;2023-02-02T13:07:37;5.70;99.90
18388;DHT22;9320;50.256;19.026;2023-02-02T13:10:12;5.70;99.90
18388;DHT22;9320;50.256;19.026;2023-02-02T13:12:49;5.80;99.90
18388;DHT22;9320;50.256;19.026;2023-02-02T13:15:20;5.40;99.90
18388;DHT22;9320;50.256;19.026;2023-02-02T13:17:53;6.20;99.90
18388;DHT22;9320;50.256;19.026;2023-02-02T13:20:34;6.10;99.90
18388;DHT22;9320;50.256;19.026;2023-02-02T13:23:08;6.00;99.90
18388;DHT22;9320;50.256;19.026;2023-02-02T13:25:41;5.80;99.90
18388;DHT22;9320;50.256;19.026;2023-02-02T13:28:19;5.90;99.90
18388;DHT22;9320;50.256;19.026;2023-02-02T13:30:52;6.00;99.90
18388;DHT22;9320;50.256;19.026;2023-02-02T13:33:27;5.90;99.90
18388;DHT22;9320;50.256;19.026;2023-02-02T13:35:59;6.00;99.90
18388;DHT22;9320;50.256;19.026;2023-02-02T13:38:30;6.00;99.90
18388;DHT22;9320;50.256;19.026;2023-02-02T13:41:01;6.00;99.90
18388;DHT22;9320;50.256;19.026;2023-02-02T13:43:40;6.10;99.90
18388;DHT22;9320;50.256;19.026;2023-02-02T13:46:20;6.00;99.90
18388;DHT22;9320;50.256;19.026;2023-02-02T13:48:59;6.00;99.90
18388;DHT22;9320;50.256;19.026;2023-02-02T13:55:08;6.00;99.90
18388;DHT22;9320;50.256;19.026;2023-02-02T14:00:37;6.20;99.90
18388;DHT22;9320;50.256;19.026;2023-02-02T14:03:22;6.20;99.90
18388;DHT22;9320;50.256;19.026;2023-02-02T14:06:03;6.10;99.30
18388;DHT22;9320;50.256;19.026;2023-02-02T14:08:32;6.20;99.90
18388;DHT22;9320;50.256;19.026;2023-02-02T14:11:01;6.20;99.60
18388;DHT22;9320;50.256;19.026;2023-02-02T14:13:36;6.20;99.90
18388;DHT22;9320;50.256;19.026;2023-02-02T14:16:49;6.10;98.90
18388;DHT22;9320;50.256;19.026;2023-02-02T14:19:46;6.20;99.40
18388;DHT22;9320;50.256;19.026;2023-02-02T14:22:38;6.20;99.10
18388;DHT22;9320;50.256;19.026;2023-02-02T14:25:46;6.10;97.80
18388;DHT22;9320;50.256;19.026;2023-02-02T14:28:38;6.10;97.40
18388;DHT22;9320;50.256;19.026;2023-02-02T14:31:16;6.20;97.40
18388;DHT22;9320;50.256;19.026;2023-02-02T14:33:48;6.20;97.50
18388;DHT22;9320;50.256;19.026;2023-02-02T14:36:16;6.30;96.10
18388;DHT22;9320;50.256;19.026;2023-02-02T14:39:02;6.20;95.70
18388;DHT22;9320;50.256;19.026;2023-02-02T14:45:15;6.00;96.10
18388;DHT22;9320;50.256;19.026;2023-02-02T14:47:51;6.00;95.70
18388;DHT22;9320;50.256;19.026;2023-02-02T14:50:26;6.00;95.40
18388;DHT22;9320;50.256;19.026;2023-02-02T14:53:00;5.90;96.20
18388;DHT22;9320;50.256;19.026;2023-02-02T14:55:30;5.80;96.00
18388;DHT22;9320;50.256;19.026;2023-02-02T14:58:00;5.80;95.80
18388;DHT22;9320;50.256;19.026;2023-02-02T15:00:30;5.80;95.30
18388;DHT22;9320;50.256;19.026;2023-02-02T15:03:34;5.70;95.60
18388;DHT22;9320;50.256;19.026;2023-02-02T15:06:12;5.70;95.40
18388;DHT22;9320;50.256;19.026;2023-02-02T15:08:40;5.80;95.60
18388;DHT22;9320;50.256;19.026;2023-02-02T15:11:09;5.80;95.40
18388;DHT22;9320;50.256;19.026;2023-02-02T15:14:00;5.80;94.70
18388;DHT22;9320;50.256;19.026;2023-02-02T15:16:35;5.70;94.70
18388;DHT22;9320;50.256;19.026;2023-02-02T15:19:12;5.60;94.60
18388;DHT22;9320;50.256;19.026;2023-02-02T15:21:43;5.60;94.70
18388;DHT22;9320;50.256;19.026;2023-02-02T15:24:18;5.60;95.10
18388;DHT22;9320;50.256;19.026;2023-02-02T15:26:47;5.60;95.20
18388;DHT22;9320;50.256;19.026;2023-02-02T15:29:23;5.60;95.10
18388;DHT22;9320;50.256;19.026;2023-02-02T15:31:54;5.60;94.80
18388;DHT22;9320;50.256;19.026;2023-02-02T15:34:24;5.60;95.00
18388;DHT22;9320;50.256;19.026;2023-02-02T15:36:57;5.50;94.20
18388;DHT22;9320;50.256;19.026;2023-02-02T15:39:29;5.50;94.40
18388;DHT22;9320;50.256;19.026;2023-02-02T15:42:01;5.50;95.00
18388;DHT22;9320;50.256;19.026;2023-02-02T15:44:47;5.40;94.60
18388;DHT22;9320;50.256;19.026;2023-02-02T15:47:17;5.40;94.20
18388;DHT22;9320;50.256;19.026;2023-02-02T15:49:46;5.40;94.10
18388;DHT22;9320;50.256;19.026;2023-02-02T15:52:22;5.30;93.30
18388;DHT22;9320;50.256;19.026;2023-02-02T15:54:52;5.20;93.10
18388;DHT22;9320;50.256;19.026;2023-02-02T15:57:25;5.20;93.10
18388;DHT22;9320;50.256;19.026;2023-02-02T15:59:54;5.20;92.80
18388;DHT22;9320;50.256;19.026;2023-02-02T16:02:30;5.20;92.90
18388;DHT22;9320;50.256;19.026;2023-02-02T16:05:00;5.20;92.80
18388;DHT22;9320;50.256;19.026;2023-02-02T16:07:31;5.20;92.90
18388;DHT22;9320;50.256;19.026;2023-02-02T16:10:03;5.20;92.70
18388;DHT22;9320;50.256;19.026;2023-02-02T16:12:31;5.10;92.70
18388;DHT22;9320;50.256;19.026;2023-02-02T16:15:01;5.20;92.50
18388;DHT22;9320;50.256;19.026;2023-02-02T16:17:30;5.20;92.60
18388;DHT22;9320;50.256;19.026;2023-02-02T16:20:01;5.20;92.80
18388;DHT22;9320;50.256;19.026;2023-02-02T16:22:36;5.20;92.70
18388;DHT22;9320;50.256;19.026;2023-02-02T16:25:07;5.20;92.90
18388;DHT22;9320;50.256;19.026;2023-02-02T16:27:36;5.10;93.20
18388;DHT22;9320;50.256;19.026;2023-02-02T16:30:06;5.10;93.30
18388;DHT22;9320;50.256;19.026;2023-02-02T16:32:36;5.20;93.30
18388;DHT22;9320;50.256;19.026;2023-02-02T16:37:51;5.30;93.50
18388;DHT22;9320;50.256;19.026;2023-02-02T16:40:25;5.30;93.60
18388;DHT22;9320;50.256;19.026;2023-02-02T16:43:03;5.20;93.10
18388;DHT22;9320;50.256;19.026;2023-02-02T16:45:33;5.30;93.30
18388;DHT22;9320;50.256;19.026;2023-02-02T16:48:19;5.20;93.20